Time;durP1;ratioP1;P1;durP2;ratioP2;P2;SDS_P1;SDS_P2;PMS_P1;PMS_P2;Temp;Humidity;BMP_temperature;BMP_pressure;BME280_temperature;BME280_humidity;BME280_pressure;Samples;Min_cycle;Max_cycle;Signal;HPM_P1;HPM_P2
2021/09/08 00:01:47;;;;;;;;;;;12.80;99.90;;;;;;5033618;28;20294;-74
2021/09/08 00:04:19;;;;;;;;;;;12.80;99.90;;;;;;5050407;28;19978;-74
2021/09/08 00:06:46;;;;;;;;;;;12.60;99.90;;;;;;5014715;28;19925;-73
2021/09/08 00:09:16;;;;;;;;;;;12.60;99.90;;;;;;5026325;28;19958;-73
2021/09/08 00:11:47;;;;;;;;;;;12.50;99.90;;;;;;5014232;28;20023;-74
2021/09/08 00:14:15;;;;;;;;;;;12.60;99.90;;;;;;5019621;28;19925;-73
2021/09/08 00:16:46;;;;;;;;;;;12.50;99.90;;;;;;5022448;28;19956;-73
2021/09/08 00:19:19;;;;;;;;;;;12.50;99.90;;;;;;5014961;28;19925;-73
2021/09/08 00:21:45;;;;;;;;;;;12.40;99.90;;;;;;5031538;28;20012;-73
2021/09/08 00:24:16;;;;;;;;;;;12.40;99.90;;;;;;5013848;28;19925;-74
2021/09/08 00:26:49;;;;;;;;;;;12.40;99.90;;;;;;5013871;28;19932;-73
2021/09/08 00:29:15;;;;;;;;;;;12.40;99.90;;;;;;5015011;28;19929;-73
2021/09/08 00:31:47;;;;;;;;;;;12.30;99.90;;;;;;5010697;28;20023;-74
2021/09/08 00:34:20;;;;;;;;;;;12.30;99.90;;;;;;5038134;28;19925;-74
2021/09/08 00:36:47;;;;;;;;;;;12.30;99.90;;;;;;5037249;28;19956;-73
2021/09/08 00:39:20;;;;;;;;;;;12.30;99.90;;;;;;5037352;28;19925;-73
2021/09/08 00:41:52;;;;;;;;;;;12.20;99.90;;;;;;5037340;28;19925;-73
2021/09/08 00:44:24;;;;;;;;;;;12.20;99.90;;;;;;5017861;28;19929;-73
2021/09/08 00:46:58;;;;;;;;;;;12.10;99.90;;;;;;5031864;28;20020;-73
2021/09/08 00:49:30;;;;;;;;;;;12.00;99.90;;;;;;5046817;28;20019;-73
2021/09/08 00:52:02;;;;;;;;;;;11.90;99.90;;;;;;5035268;28;19929;-73
2021/09/08 00:54:35;;;;;;;;;;;11.90;99.90;;;;;;5025108;28;19967;-73
2021/09/08 00:57:08;;;;;;;;;;;11.90;99.90;;;;;;5036255;28;19973;-73
2021/09/08 00:59:43;;;;;;;;;;;11.90;99.90;;;;;;5025411;28;19929;-74
2021/09/08 01:02:11;;;;;;;;;;;11.90;99.90;;;;;;5019007;28;19925;-73
2021/09/08 01:04:38;;;;;;;;;;;11.80;99.90;;;;;;5036043;28;19928;-73
2021/09/08 01:07:11;;;;;;;;;;;11.80;99.90;;;;;;5019898;28;20383;-74
2021/09/08 01:09:43;;;;;;;;;;;11.80;99.90;;;;;;5017549;28;19925;-73
2021/09/08 01:12:10;;;;;;;;;;;11.80;99.90;;;;;;5030525;28;19924;-73
2021/09/08 01:14:37;;;;;;;;;;;11.80;99.90;;;;;;5036124;28;20027;-74
2021/09/08 01:17:04;;;;;;;;;;;11.80;99.90;;;;;;5035135;28;19925;-74
2021/09/08 01:19:37;;;;;;;;;;;11.70;99.90;;;;;;5016664;28;19925;-73
2021/09/08 01:22:11;;;;;;;;;;;11.70;99.90;;;;;;5016917;28;20442;-73
2021/09/08 01:24:42;;;;;;;;;;;11.70;99.90;;;;;;5016425;28;19975;-73
2021/09/08 01:27:15;;;;;;;;;;;11.70;99.90;;;;;;5016825;28;19925;-73
2021/09/08 01:29:44;;;;;;;;;;;11.70;99.90;;;;;;5024418;28;20484;-73
2021/09/08 01:32:12;;;;;;;;;;;11.70;99.90;;;;;;5036195;28;19979;-73
2021/09/08 01:34:43;;;;;;;;;;;11.70;99.90;;;;;;5032766;28;19925;-73
2021/09/08 01:37:15;;;;;;;;;;;11.70;99.90;;;;;;5033825;28;19924;-73
2021/09/08 01:39:47;;;;;;;;;;;11.70;99.90;;;;;;5013083;28;20442;-73
2021/09/08 01:42:18;;;;;;;;;;;11.60;99.90;;;;;;5000535;28;20019;-73
2021/09/08 01:44:50;;;;;;;;;;;11.60;99.90;;;;;;5008547;28;20039;-73
2021/09/08 01:47:22;;;;;;;;;;;11.50;99.90;;;;;;5017830;28;20437;-73
2021/09/08 01:49:48;;;;;;;;;;;11.50;99.90;;;;;;5015440;28;19979;-73
2021/09/08 01:52:15;;;;;;;;;;;11.50;99.90;;;;;;5016288;28;19925;-73
2021/09/08 01:54:42;;;;;;;;;;;11.40;99.90;;;;;;5015619;28;19975;-73
2021/09/08 01:57:08;;;;;;;;;;;11.40;99.90;;;;;;5017957;28;19979;-73
2021/09/08 01:59:40;;;;;;;;;;;11.40;99.90;;;;;;5029865;28;20031;-73
2021/09/08 02:02:12;;;;;;;;;;;11.40;99.90;;;;;;5017457;28;20442;-73
2021/09/08 02:04:38;;;;;;;;;;;11.40;99.90;;;;;;5033990;28;19968;-73
2021/09/08 02:07:05;;;;;;;;;;;11.40;99.90;;;;;;5015144;28;20383;-73
2021/09/08 02:09:37;;;;;;;;;;;11.40;99.90;;;;;;5015754;28;20374;-73
2021/09/08 02:12:09;;;;;;;;;;;11.40;99.90;;;;;;5016887;28;20020;-73
2021/09/08 02:14:36;;;;;;;;;;;11.30;99.90;;;;;;5033218;28;19929;-73
2021/09/08 02:17:07;;;;;;;;;;;11.30;99.90;;;;;;5017238;28;19932;-73
2021/09/08 02:19:39;;;;;;;;;;;11.30;99.90;;;;;;5036345;28;20304;-73
2021/09/08 02:22:11;;;;;;;;;;;11.20;99.90;;;;;;5035313;28;20385;-73
2021/09/08 02:24:42;;;;;;;;;;;11.20;99.90;;;;;;5021789;28;20020;-73
2021/09/08 02:27:14;;;;;;;;;;;11.20;99.90;;;;;;5017930;28;19932;-73
2021/09/08 02:29:45;;;;;;;;;;;11.10;99.90;;;;;;5050037;28;19932;-73
2021/09/08 02:32:12;;;;;;;;;;;11.10;99.90;;;;;;5032525;28;19963;-73
2021/09/08 02:34:39;;;;;;;;;;;11.10;99.90;;;;;;5026371;28;20459;-73
2021/09/08 02:37:12;;;;;;;;;;;11.00;99.90;;;;;;5028292;28;19925;-73
2021/09/08 02:39:38;;;;;;;;;;;11.00;99.90;;;;;;5035457;28;19963;-73
2021/09/08 02:42:11;;;;;;;;;;;11.00;99.90;;;;;;5036344;28;20302;-73
2021/09/08 02:44:37;;;;;;;;;;;11.00;99.90;;;;;;5018206;28;20027;-73
2021/09/08 02:47:04;;;;;;;;;;;11.00;99.90;;;;;;5033549;28;19970;-73
2021/09/08 02:49:36;;;;;;;;;;;11.00;99.90;;;;;;5015336;28;19925;-73
2021/09/08 02:52:08;;;;;;;;;;;11.00;99.90;;;;;;5016654;28;20462;-73
2021/09/08 02:54:39;;;;;;;;;;;11.00;99.90;;;;;;5033779;28;19928;-73
2021/09/08 02:57:11;;;;;;;;;;;11.00;99.90;;;;;;5034555;28;19925;-73
2021/09/08 02:59:37;;;;;;;;;;;10.90;99.90;;;;;;5032388;28;20012;-73
2021/09/08 03:02:04;;;;;;;;;;;10.90;99.90;;;;;;5031633;28;19990;-73
2021/09/08 03:04:31;;;;;;;;;;;10.90;99.90;;;;;;5025964;28;20016;-73
2021/09/08 03:06:58;;;;;;;;;;;10.80;99.90;;;;;;5015253;28;20307;-73
2021/09/08 03:09:30;;;;;;;;;;;10.80;99.90;;;;;;5018277;28;20012;-73
2021/09/08 03:12:02;;;;;;;;;;;10.80;99.90;;;;;;5035699;28;20401;-73
2021/09/08 03:14:29;;;;;;;;;;;10.80;99.90;;;;;;5017824;28;20028;-73
2021/09/08 03:17:00;;;;;;;;;;;10.80;99.90;;;;;;5018514;28;20383;-73
2021/09/08 03:19:27;;;;;;;;;;;10.80;99.90;;;;;;5034586;28;20369;-73
2021/09/08 03:21:59;;;;;;;;;;;10.70;99.90;;;;;;5034845;28;19924;-73
2021/09/08 03:24:25;;;;;;;;;;;10.70;99.90;;;;;;5017690;28;19929;-73
2021/09/08 03:26:57;;;;;;;;;;;10.70;99.90;;;;;;5016844;28;19964;-73
2021/09/08 03:29:29;;;;;;;;;;;10.60;99.90;;;;;;5017144;28;19963;-73
2021/09/08 03:31:56;;;;;;;;;;;10.60;99.90;;;;;;5033672;28;19998;-73
2021/09/08 03:34:27;;;;;;;;;;;10.50;99.90;;;;;;5035138;28;20290;-73
2021/09/08 03:36:59;;;;;;;;;;;10.50;99.90;;;;;;5023975;28;19929;-74
2021/09/08 03:39:31;;;;;;;;;;;10.50;99.90;;;;;;5032610;28;19998;-73
2021/09/08 03:42:03;;;;;;;;;;;10.40;99.90;;;;;;5032773;28;19924;-73
2021/09/08 03:44:34;;;;;;;;;;;10.40;99.90;;;;;;5013853;28;20618;-73
2021/09/08 03:47:06;;;;;;;;;;;10.40;99.90;;;;;;5015693;28;19931;-73
2021/09/08 03:49:38;;;;;;;;;;;10.40;99.90;;;;;;5018279;28;19931;-73
2021/09/08 03:52:04;;;;;;;;;;;10.30;99.90;;;;;;5033127;28;20023;-73
2021/09/08 03:54:31;;;;;;;;;;;10.30;99.90;;;;;;5033190;28;20398;-73
2021/09/08 03:57:03;;;;;;;;;;;10.30;99.90;;;;;;5017832;28;19925;-73
2021/09/08 03:59:30;;;;;;;;;;;10.20;99.90;;;;;;5027488;28;19929;-73
2021/09/08 04:01:56;;;;;;;;;;;10.30;99.90;;;;;;5013490;28;19959;-73
2021/09/08 04:04:28;;;;;;;;;;;10.20;99.90;;;;;;5012966;28;19933;-73
2021/09/08 04:06:55;;;;;;;;;;;10.20;99.90;;;;;;5013522;28;19932;-73
2021/09/08 04:09:27;;;;;;;;;;;10.20;99.90;;;;;;5032879;28;20023;-73
2021/09/08 04:11:54;;;;;;;;;;;10.20;99.90;;;;;;5033235;28;19967;-73
2021/09/08 04:14:26;;;;;;;;;;;10.20;99.90;;;;;;5030585;28;19925;-73
2021/09/08 04:16:52;;;;;;;;;;;10.20;99.90;;;;;;5013341;28;20342;-73
2021/09/08 04:19:20;;;;;;;;;;;10.20;99.90;;;;;;5013202;28;20543;-73
2021/09/08 04:21:47;;;;;;;;;;;10.10;99.90;;;;;;5013200;28;20023;-73
2021/09/08 04:24:18;;;;;;;;;;;10.20;99.90;;;;;;5020928;28;19925;-73
2021/09/08 04:26:45;;;;;;;;;;;10.10;99.90;;;;;;5032939;28;19970;-73
2021/09/08 04:29:12;;;;;;;;;;;10.00;99.90;;;;;;5014046;28;19925;-73
2021/09/08 04:31:44;;;;;;;;;;;10.00;99.90;;;;;;5027344;28;19925;-73
2021/09/08 04:34:11;;;;;;;;;;;9.90;99.90;;;;;;5032937;28;19929;-73
2021/09/08 04:36:37;;;;;;;;;;;9.90;99.90;;;;;;5027226;28;19972;-76
2021/09/08 04:39:09;;;;;;;;;;;9.90;99.90;;;;;;5029861;28;19963;-73
2021/09/08 04:41:36;;;;;;;;;;;9.90;99.90;;;;;;5033315;28;20027;-73
2021/09/08 04:44:07;;;;;;;;;;;9.90;99.90;;;;;;5031697;28;20313;-73
2021/09/08 04:46:39;;;;;;;;;;;9.90;99.90;;;;;;5033378;28;19924;-73
2021/09/08 04:49:10;;;;;;;;;;;9.90;99.90;;;;;;5017609;28;20069;-73
2021/09/08 04:51:42;;;;;;;;;;;9.90;99.90;;;;;;5032624;28;19947;-73
2021/09/08 04:54:09;;;;;;;;;;;9.90;99.90;;;;;;5032973;28;19953;-73
2021/09/08 04:56:41;;;;;;;;;;;9.90;99.90;;;;;;5051346;28;20016;-73
2021/09/08 04:59:07;;;;;;;;;;;9.90;99.90;;;;;;5014832;28;19932;-73
2021/09/08 05:01:34;;;;;;;;;;;9.90;99.90;;;;;;5014660;28;20011;-73
2021/09/08 05:04:01;;;;;;;;;;;9.90;99.90;;;;;;5023671;28;20028;-73
2021/09/08 05:06:27;;;;;;;;;;;9.90;99.90;;;;;;5032727;28;20397;-73
2021/09/08 05:08:55;;;;;;;;;;;9.90;99.90;;;;;;5051061;28;19964;-73
2021/09/08 05:11:22;;;;;;;;;;;9.90;99.90;;;;;;5033549;28;19982;-73
2021/09/08 05:13:48;;;;;;;;;;;9.90;99.90;;;;;;5017669;28;20024;-73
2021/09/08 05:16:15;;;;;;;;;;;9.90;99.90;;;;;;5013158;28;20007;-73
2021/09/08 05:18:42;;;;;;;;;;;9.90;99.90;;;;;;5031531;28;20027;-73
2021/09/08 05:21:08;;;;;;;;;;;10.00;99.90;;;;;;5036722;28;19975;-73
2021/09/08 05:23:35;;;;;;;;;;;10.00;99.90;;;;;;5036334;28;19924;-73
2021/09/08 05:26:07;;;;;;;;;;;10.00;99.90;;;;;;5036448;28;20331;-73
2021/09/08 05:28:38;;;;;;;;;;;10.00;99.90;;;;;;5036235;28;19928;-73
2021/09/08 05:31:10;;;;;;;;;;;10.00;99.90;;;;;;5054448;28;20027;-73
2021/09/08 05:33:42;;;;;;;;;;;10.00;99.90;;;;;;5037436;28;19929;-73
2021/09/08 05:36:15;;;;;;;;;;;10.00;99.90;;;;;;5036314;28;19925;-73
2021/09/08 05:38:46;;;;;;;;;;;10.10;99.90;;;;;;5028118;28;19931;-72
2021/09/08 05:41:13;;;;;;;;;;;10.10;99.90;;;;;;5035866;28;19924;-73
2021/09/08 05:43:40;;;;;;;;;;;10.10;99.90;;;;;;5033788;28;19933;-73
2021/09/08 05:46:06;;;;;;;;;;;10.10;99.90;;;;;;5035776;28;19978;-73
2021/09/08 05:48:38;;;;;;;;;;;10.10;99.90;;;;;;5017401;28;19932;-73
2021/09/08 05:51:05;;;;;;;;;;;10.10;99.90;;;;;;5036071;28;20023;-73
2021/09/08 05:53:31;;;;;;;;;;;10.20;99.90;;;;;;5026196;28;20011;-73
2021/09/08 05:55:58;;;;;;;;;;;10.20;99.90;;;;;;5034288;28;19956;-73
2021/09/08 05:58:25;;;;;;;;;;;10.20;99.90;;;;;;5034471;28;20048;-73
2021/09/08 06:00:56;;;;;;;;;;;10.30;99.90;;;;;;5032053;28;19925;-73
2021/09/08 06:03:28;;;;;;;;;;;10.30;99.90;;;;;;5034345;28;20008;-73
2021/09/08 06:05:55;;;;;;;;;;;10.30;99.90;;;;;;5033111;28;19925;-73
2021/09/08 06:08:22;;;;;;;;;;;10.40;99.90;;;;;;5016653;28;19925;-73
2021/09/08 06:10:54;;;;;;;;;;;10.50;99.90;;;;;;5048042;28;20322;-73
2021/09/08 06:13:25;;;;;;;;;;;10.50;99.90;;;;;;5056712;28;19924;-73
2021/09/08 06:15:57;;;;;;;;;;;10.60;99.90;;;;;;5035227;28;20015;-73
2021/09/08 06:18:24;;;;;;;;;;;10.70;99.90;;;;;;5029606;28;19925;-73
2021/09/08 06:20:56;;;;;;;;;;;10.70;99.90;;;;;;5033287;28;19925;-73
2021/09/08 06:23:23;;;;;;;;;;;10.70;99.90;;;;;;5035304;28;20035;-73
2021/09/08 06:25:50;;;;;;;;;;;10.80;99.90;;;;;;5034156;28;19925;-73
2021/09/08 06:28:18;;;;;;;;;;;10.80;99.90;;;;;;5034067;28;19952;-73
2021/09/08 06:30:50;;;;;;;;;;;10.80;99.90;;;;;;5036320;28;20048;-73
2021/09/08 06:33:22;;;;;;;;;;;10.90;99.90;;;;;;5034885;28;19925;-73
2021/09/08 06:35:53;;;;;;;;;;;11.00;99.90;;;;;;5034597;28;20371;-73
2021/09/08 06:38:25;;;;;;;;;;;11.00;99.90;;;;;;5034473;28;20390;-73
2021/09/08 06:40:58;;;;;;;;;;;11.10;99.90;;;;;;5029637;28;20024;-73
2021/09/08 06:43:25;;;;;;;;;;;11.20;99.90;;;;;;5016200;28;20331;-73
2021/09/08 06:45:52;;;;;;;;;;;11.20;99.90;;;;;;5022487;28;19924;-73
2021/09/08 06:48:18;;;;;;;;;;;11.20;99.90;;;;;;5032717;28;19968;-73
2021/09/08 06:50:45;;;;;;;;;;;11.30;99.90;;;;;;5015906;28;19929;-72
2021/09/08 06:53:12;;;;;;;;;;;11.40;99.90;;;;;;5034859;28;20361;-73
2021/09/08 06:55:39;;;;;;;;;;;11.40;99.90;;;;;;5034740;28;20020;-73
2021/09/08 06:58:11;;;;;;;;;;;11.50;99.90;;;;;;5018355;28;20039;-73
2021/09/08 07:00:38;;;;;;;;;;;11.60;99.90;;;;;;5034490;28;19968;-73
2021/09/08 07:03:09;;;;;;;;;;;11.70;99.90;;;;;;5020053;28;20023;-73
2021/09/08 07:05:36;;;;;;;;;;;11.80;99.90;;;;;;5029571;28;19971;-73
2021/09/08 07:08:05;;;;;;;;;;;11.90;99.90;;;;;;5031368;28;20099;-73
2021/09/08 07:10:32;;;;;;;;;;;12.00;99.90;;;;;;5034289;28;19971;-73
2021/09/08 07:13:03;;;;;;;;;;;12.10;99.90;;;;;;5032109;28;20482;-74
2021/09/08 07:15:30;;;;;;;;;;;12.20;99.90;;;;;;5040042;28;20019;-73
2021/09/08 07:17:57;;;;;;;;;;;12.20;99.90;;;;;;5034321;28;20363;-73
2021/09/08 07:20:28;;;;;;;;;;;12.30;99.90;;;;;;5022363;28;20018;-74
2021/09/08 07:22:55;;;;;;;;;;;12.40;99.90;;;;;;5041549;28;19961;-73
2021/09/08 07:25:27;;;;;;;;;;;12.50;99.90;;;;;;5021851;28;19924;-73
2021/09/08 07:27:53;;;;;;;;;;;12.60;99.90;;;;;;5032993;28;20024;-73
2021/09/08 07:30:20;;;;;;;;;;;12.70;99.90;;;;;;5012353;28;19968;-73
2021/09/08 07:32:47;;;;;;;;;;;12.80;99.90;;;;;;5017952;28;20403;-73
2021/09/08 07:35:13;;;;;;;;;;;12.90;99.90;;;;;;5026313;28;19960;-73
2021/09/08 07:37:40;;;;;;;;;;;13.10;99.90;;;;;;5049040;28;20020;-73
2021/09/08 07:40:08;;;;;;;;;;;13.20;99.90;;;;;;5031272;28;20662;-74
2021/09/08 07:42:35;;;;;;;;;;;13.30;99.90;;;;;;5019514;28;20019;-73
2021/09/08 07:45:03;;;;;;;;;;;13.60;99.90;;;;;;5012280;28;20455;-73
2021/09/08 07:47:30;;;;;;;;;;;13.90;99.90;;;;;;5011719;28;20482;-73
2021/09/08 07:49:56;;;;;;;;;;;14.10;99.90;;;;;;5026363;28;20015;-73
2021/09/08 07:52:28;;;;;;;;;;;14.20;99.90;;;;;;5030498;28;19956;-73
2021/09/08 07:55:00;;;;;;;;;;;14.30;99.90;;;;;;5027845;28;20366;-74
2021/09/08 07:57:27;;;;;;;;;;;14.50;99.90;;;;;;5031862;28;20436;-73
2021/09/08 07:59:54;;;;;;;;;;;14.60;99.90;;;;;;5007687;28;19960;-73
2021/09/08 08:02:25;;;;;;;;;;;14.70;99.90;;;;;;5030290;28;19947;-74
2021/09/08 08:04:52;;;;;;;;;;;14.80;99.90;;;;;;5049241;28;19925;-74
2021/09/08 08:07:18;;;;;;;;;;;14.90;99.90;;;;;;5003340;28;20024;-73
2021/09/08 08:09:50;;;;;;;;;;;15.00;99.90;;;;;;5030948;28;19933;-74
2021/09/08 08:12:17;;;;;;;;;;;15.10;99.90;;;;;;5032107;28;20031;-73
2021/09/08 08:14:43;;;;;;;;;;;15.20;99.90;;;;;;5031556;28;19925;-74
2021/09/08 08:17:10;;;;;;;;;;;15.30;99.90;;;;;;5030567;28;19928;-73
2021/09/08 08:19:37;;;;;;;;;;;15.50;99.90;;;;;;5014017;28;20011;-73
2021/09/08 08:22:10;;;;;;;;;;;15.60;99.90;;;;;;5030049;28;21843;-73
2021/09/08 08:24:37;;;;;;;;;;;15.70;99.90;;;;;;5013974;28;20047;-73
2021/09/08 08:27:04;;;;;;;;;;;15.90;99.90;;;;;;5030525;28;20016;-74
2021/09/08 08:29:36;;;;;;;;;;;16.00;99.90;;;;;;5013239;28;19925;-72
2021/09/08 08:32:03;;;;;;;;;;;16.10;99.90;;;;;;5011378;28;20012;-73
2021/09/08 08:34:34;;;;;;;;;;;16.30;99.90;;;;;;5012289;28;19925;-73
2021/09/08 08:37:06;;;;;;;;;;;16.40;99.90;;;;;;5016000;28;19925;-73
2021/09/08 08:39:38;;;;;;;;;;;16.50;99.90;;;;;;5030388;28;20387;-73
2021/09/08 08:42:06;;;;;;;;;;;16.60;99.90;;;;;;5031079;28;20430;-73
2021/09/08 08:44:33;;;;;;;;;;;16.70;99.90;;;;;;5025925;28;20370;-73
2021/09/08 08:47:05;;;;;;;;;;;16.80;99.90;;;;;;5031591;28;19931;-73
2021/09/08 08:49:32;;;;;;;;;;;17.00;99.90;;;;;;5029820;28;19929;-74
2021/09/08 08:51:59;;;;;;;;;;;17.10;99.90;;;;;;5030185;28;20371;-74
2021/09/08 08:54:31;;;;;;;;;;;17.20;99.90;;;;;;5026161;28;20341;-74
2021/09/08 08:56:57;;;;;;;;;;;17.30;99.90;;;;;;5035346;28;19955;-74
2021/09/08 08:59:29;;;;;;;;;;;17.30;99.90;;;;;;5030670;28;19975;-74
2021/09/08 09:02:14;;;;;;;;;;;17.50;99.90;;;;;;5018810;28;20482;-74
2021/09/08 09:04:47;;;;;;;;;;;17.60;99.90;;;;;;5031873;28;20004;-74
2021/09/08 09:07:33;;;;;;;;;;;17.70;99.90;;;;;;5030108;28;20387;-75
2021/09/08 09:10:07;;;;;;;;;;;17.80;99.90;;;;;;5036388;28;20012;-74
2021/09/08 09:12:40;;;;;;;;;;;18.00;99.90;;;;;;5035241;28;19924;-74
2021/09/08 09:15:13;;;;;;;;;;;18.10;99.90;;;;;;5034702;28;19975;-74
2021/09/08 09:17:46;;;;;;;;;;;18.20;99.90;;;;;;5019589;28;20027;-74
2021/09/08 09:20:14;;;;;;;;;;;18.30;99.90;;;;;;5052880;28;19985;-73
2021/09/08 09:22:42;;;;;;;;;;;18.40;99.90;;;;;;5035054;28;19936;-74
2021/09/08 09:25:13;;;;;;;;;;;18.50;99.90;;;;;;5029879;28;20024;-74
2021/09/08 09:27:48;;;;;;;;;;;18.60;99.90;;;;;;5024450;28;19961;-74
2021/09/08 09:30:16;;;;;;;;;;;18.70;99.90;;;;;;5033776;28;19960;-74
2021/09/08 09:32:44;;;;;;;;;;;18.80;99.90;;;;;;5034019;28;20490;-74
2021/09/08 09:35:20;;;;;;;;;;;18.90;99.90;;;;;;5027795;28;19988;-74
2021/09/08 09:37:48;;;;;;;;;;;19.00;99.90;;;;;;5034193;28;20449;-74
2021/09/08 09:40:16;;;;;;;;;;;19.20;99.90;;;;;;5032168;28;20012;-74
2021/09/08 09:42:43;;;;;;;;;;;19.20;99.90;;;;;;5018263;28;19988;-74
2021/09/08 09:45:15;;;;;;;;;;;19.30;99.90;;;;;;5034693;28;20498;-74
2021/09/08 09:47:45;;;;;;;;;;;19.40;99.90;;;;;;5034259;28;20024;-74
2021/09/08 09:50:18;;;;;;;;;;;19.50;99.90;;;;;;5014412;28;20012;-74
2021/09/08 09:52:49;;;;;;;;;;;19.60;99.90;;;;;;5030195;28;20023;-73
2021/09/08 09:55:16;;;;;;;;;;;19.70;99.90;;;;;;5023696;28;19925;-74
2021/09/08 09:57:48;;;;;;;;;;;19.90;99.90;;;;;;5033389;28;19964;-74
2021/09/08 10:00:20;;;;;;;;;;;20.00;99.90;;;;;;5034407;28;19951;-74
2021/09/08 10:02:47;;;;;;;;;;;20.10;99.90;;;;;;5026833;28;19979;-73
2021/09/08 10:05:17;;;;;;;;;;;20.20;99.90;;;;;;5014220;28;20307;-73
2021/09/08 10:07:43;;;;;;;;;;;20.30;99.90;;;;;;5013376;28;20037;-74
2021/09/08 10:10:20;;;;;;;;;;;20.40;99.90;;;;;;5027669;28;19952;-74
2021/09/08 10:12:54;;;;;;;;;;;20.50;99.90;;;;;;5014136;28;20013;-74
2021/09/08 10:15:21;;;;;;;;;;;20.50;99.90;;;;;;5023643;28;20018;-73
2021/09/08 10:18:03;;;;;;;;;;;20.60;99.90;;;;;;5031186;28;19931;-73
2021/09/08 10:20:35;;;;;;;;;;;20.70;99.90;;;;;;5025040;28;20016;-73
2021/09/08 10:23:07;;;;;;;;;;;20.80;99.90;;;;;;5029336;28;19925;-73
2021/09/08 10:25:34;;;;;;;;;;;20.90;99.90;;;;;;5029114;28;20387;-73
2021/09/08 10:28:05;;;;;;;;;;;21.00;99.90;;;;;;5030324;28;20309;-73
2021/09/08 10:30:37;;;;;;;;;;;21.10;99.90;;;;;;5023911;28;20661;-73
2021/09/08 10:33:05;;;;;;;;;;;21.20;99.90;;;;;;5017799;28;19979;-73
2021/09/08 10:35:39;;;;;;;;;;;21.30;99.90;;;;;;5029677;28;19952;-73
2021/09/08 10:38:12;;;;;;;;;;;21.40;99.90;;;;;;5033146;28;19925;-73
2021/09/08 10:40:40;;;;;;;;;;;21.60;99.90;;;;;;5014037;28;20366;-73
2021/09/08 10:43:13;;;;;;;;;;;21.70;99.90;;;;;;5013924;28;19929;-73
2021/09/08 10:45:58;;;;;;;;;;;21.70;99.90;;;;;;5024550;28;19929;-73
2021/09/08 10:48:42;;;;;;;;;;;21.80;99.90;;;;;;5037284;28;19964;-73
2021/09/08 10:51:09;;;;;;;;;;;21.90;99.90;;;;;;5012694;28;19968;-73
2021/09/08 10:53:41;;;;;;;;;;;22.00;99.90;;;;;;4999374;28;20016;-73
2021/09/08 10:56:13;;;;;;;;;;;22.10;99.90;;;;;;5021258;28;20122;-73
2021/09/08 10:58:56;;;;;;;;;;;22.10;99.90;;;;;;5033286;28;20015;-73
2021/09/08 11:01:23;;;;;;;;;;;22.20;99.90;;;;;;5031955;28;20371;-73
2021/09/08 11:03:51;;;;;;;;;;;22.30;99.90;;;;;;5014444;28;19991;-73
2021/09/08 11:06:31;;;;;;;;;;;22.40;99.90;;;;;;5028995;28;19930;-73
2021/09/08 11:09:00;;;;;;;;;;;22.50;99.90;;;;;;5027827;28;20008;-73
2021/09/08 11:11:32;;;;;;;;;;;22.60;99.90;;;;;;5011289;28;20474;-73
2021/09/08 11:14:03;;;;;;;;;;;22.70;99.90;;;;;;5027365;28;19925;-73
2021/09/08 11:16:31;;;;;;;;;;;22.70;99.90;;;;;;5034151;28;20031;-73
2021/09/08 11:19:00;;;;;;;;;;;22.80;99.90;;;;;;5025016;28;19929;-73
2021/09/08 11:21:30;;;;;;;;;;;22.80;99.90;;;;;;5052401;28;19925;-73
2021/09/08 11:24:04;;;;;;;;;;;22.90;99.90;;;;;;5017729;28;20349;-74
2021/09/08 11:26:32;;;;;;;;;;;23.00;99.90;;;;;;5013970;28;20395;-73
2021/09/08 11:29:19;;;;;;;;;;;23.00;99.90;;;;;;5022336;28;19955;-73
2021/09/08 11:31:46;;;;;;;;;;;23.10;99.90;;;;;;5025440;28;20982;-73
2021/09/08 11:34:20;;;;;;;;;;;23.20;99.90;;;;;;5023889;28;20020;-73
2021/09/08 11:36:53;;;;;;;;;;;23.20;99.90;;;;;;5030465;28;20542;-73
2021/09/08 11:39:25;;;;;;;;;;;23.30;99.90;;;;;;5048902;28;20020;-74
2021/09/08 11:41:56;;;;;;;;;;;23.40;99.90;;;;;;5032773;28;19968;-74
2021/09/08 11:44:28;;;;;;;;;;;23.50;99.90;;;;;;5032350;28;20367;-74
2021/09/08 11:46:55;;;;;;;;;;;23.50;99.90;;;;;;5027832;28;20035;-74
2021/09/08 11:49:27;;;;;;;;;;;23.60;99.90;;;;;;5032946;28;20043;-74
2021/09/08 11:51:54;;;;;;;;;;;23.70;99.90;;;;;;5027755;28;20581;-74
2021/09/08 11:54:25;;;;;;;;;;;23.70;99.90;;;;;;5022686;28;19925;-74
2021/09/08 11:56:53;;;;;;;;;;;23.80;99.90;;;;;;5032583;28;19987;-74
2021/09/08 11:59:33;;;;;;;;;;;23.90;99.90;;;;;;5010974;28;19925;-74
2021/09/08 12:02:00;;;;;;;;;;;23.90;99.90;;;;;;5028170;28;20292;-74
2021/09/08 12:04:32;;;;;;;;;;;24.00;99.90;;;;;;5012062;28;20043;-74
2021/09/08 12:07:06;;;;;;;;;;;24.00;99.90;;;;;;5034204;28;20027;-74
2021/09/08 12:09:40;;;;;;;;;;;24.00;99.90;;;;;;5028377;28;19972;-74
2021/09/08 12:12:15;;;;;;;;;;;24.10;99.90;;;;;;5043091;28;19949;-74
2021/09/08 12:14:43;;;;;;;;;;;24.20;99.90;;;;;;5015669;28;19968;-73
2021/09/08 12:17:12;;;;;;;;;;;24.30;99.90;;;;;;5050920;28;20094;-74
2021/09/08 12:19:40;;;;;;;;;;;24.40;99.90;;;;;;5033408;28;20336;-74
2021/09/08 12:22:12;;;;;;;;;;;24.50;99.90;;;;;;5010390;28;20023;-74
2021/09/08 12:24:39;;;;;;;;;;;24.50;99.90;;;;;;5029410;28;19925;-74
2021/09/08 12:27:31;;;;;;;;;;;24.60;99.90;;;;;;5035753;28;20011;-74
2021/09/08 12:30:20;;;;;;;;;;;24.70;99.90;;;;;;5018397;28;19964;-73
2021/09/08 12:32:48;;;;;;;;;;;24.70;99.90;;;;;;5037669;28;19960;-74
2021/09/08 12:35:32;;;;;;;;;;;24.70;99.90;;;;;;5035754;28;19931;-74
2021/09/08 12:37:58;;;;;;;;;;;24.70;99.90;;;;;;5036837;28;19929;-74
2021/09/08 12:40:25;;;;;;;;;;;24.80;99.90;;;;;;5013746;28;19975;-74
2021/09/08 12:42:57;;;;;;;;;;;24.80;99.90;;;;;;5037087;28;19959;-74
2021/09/08 12:45:29;;;;;;;;;;;24.90;99.90;;;;;;5021036;28;19928;-74
2021/09/08 12:47:56;;;;;;;;;;;25.00;99.90;;;;;;5035494;28;20395;-73
2021/09/08 12:50:23;;;;;;;;;;;25.10;99.90;;;;;;5017552;28;20367;-74
2021/09/08 12:52:50;;;;;;;;;;;25.20;99.90;;;;;;5032318;28;19924;-73
2021/09/08 12:55:22;;;;;;;;;;;25.30;99.90;;;;;;5022062;28;20007;-74
2021/09/08 12:57:54;;;;;;;;;;;25.30;99.90;;;;;;5034819;28;19935;-74
2021/09/08 13:00:25;;;;;;;;;;;25.30;99.90;;;;;;5018994;28;20039;-74
2021/09/08 13:02:52;;;;;;;;;;;25.30;99.90;;;;;;5052263;28;19925;-74
2021/09/08 13:05:19;;;;;;;;;;;25.40;99.90;;;;;;5054427;28;19975;-74
2021/09/08 13:07:50;;;;;;;;;;;25.40;99.90;;;;;;5037775;28;20046;-74
2021/09/08 13:10:22;;;;;;;;;;;25.40;99.90;;;;;;5032744;28;19925;-74
2021/09/08 13:12:48;;;;;;;;;;;25.50;99.90;;;;;;5036864;28;20023;-73
2021/09/08 13:15:15;;;;;;;;;;;25.60;99.90;;;;;;5036012;28;19925;-74
2021/09/08 13:17:42;;;;;;;;;;;25.60;99.90;;;;;;5036968;28;19964;-74
2021/09/08 13:20:14;;;;;;;;;;;25.60;99.90;;;;;;5033575;28;19929;-74
2021/09/08 13:22:45;;;;;;;;;;;25.70;99.90;;;;;;5036563;28;20023;-74
2021/09/08 13:25:12;;;;;;;;;;;25.70;99.90;;;;;;5051413;28;20038;-74
2021/09/08 13:27:43;;;;;;;;;;;25.80;99.90;;;;;;5034142;28;20028;-74
2021/09/08 13:30:11;;;;;;;;;;;25.80;99.90;;;;;;5035403;28;20012;-74
2021/09/08 13:32:42;;;;;;;;;;;25.90;99.90;;;;;;5051297;28;19974;-74
2021/09/08 13:35:09;;;;;;;;;;;26.00;99.90;;;;;;5033125;28;20003;-74
2021/09/08 13:37:41;;;;;;;;;;;26.00;99.90;;;;;;5014225;28;20456;-74
2021/09/08 13:40:08;;;;;;;;;;;26.20;99.90;;;;;;5035097;28;19931;-74
2021/09/08 13:42:39;;;;;;;;;;;26.30;99.90;;;;;;5017590;28;19925;-74
2021/09/08 13:45:11;;;;;;;;;;;26.30;99.90;;;;;;5014209;28;19964;-74
2021/09/08 13:47:38;;;;;;;;;;;26.30;99.90;;;;;;5030239;28;19964;-74
2021/09/08 13:50:05;;;;;;;;;;;26.40;99.90;;;;;;5031452;28;19964;-74
2021/09/08 13:52:32;;;;;;;;;;;26.50;99.90;;;;;;5018885;28;20370;-74
2021/09/08 13:55:00;;;;;;;;;;;26.60;99.90;;;;;;5034445;28;19925;-74
2021/09/08 13:57:27;;;;;;;;;;;26.70;99.90;;;;;;5033123;28;20023;-74
2021/09/08 13:59:54;;;;;;;;;;;26.70;99.90;;;;;;5030262;28;19972;-75
2021/09/08 14:02:20;;;;;;;;;;;26.70;99.90;;;;;;5052716;28;19924;-75
2021/09/08 14:04:47;;;;;;;;;;;26.80;98.80;;;;;;5034436;28;19947;-75
2021/09/08 14:07:14;;;;;;;;;;;26.90;99.50;;;;;;5029182;28;19975;-75
2021/09/08 14:09:46;;;;;;;;;;;26.90;99.50;;;;;;5033155;28;20011;-74
2021/09/08 14:12:21;;;;;;;;;;;27.00;99.20;;;;;;5035198;28;19925;-74
2021/09/08 14:14:49;;;;;;;;;;;27.10;98.10;;;;;;5047183;28;19967;-75
2021/09/08 14:17:21;;;;;;;;;;;27.20;97.80;;;;;;5023564;28;19940;-75
2021/09/08 14:19:47;;;;;;;;;;;27.30;97.60;;;;;;5032976;28;20454;-75
2021/09/08 14:22:19;;;;;;;;;;;27.40;98.20;;;;;;5028267;28;19931;-75
2021/09/08 14:24:51;;;;;;;;;;;27.60;96.80;;;;;;5033177;28;19929;-75
2021/09/08 14:27:18;;;;;;;;;;;27.70;96.40;;;;;;5014470;28;20395;-74
2021/09/08 14:29:51;;;;;;;;;;;27.80;96.90;;;;;;5032328;28;20028;-73
2021/09/08 14:32:23;;;;;;;;;;;28.10;96.60;;;;;;5013921;28;20475;-74
2021/09/08 14:34:54;;;;;;;;;;;28.30;95.60;;;;;;5014131;28;20015;-74